Coralville, IA

6:55 AM CDT on August 23, 2014 (GMT -0500)
1/4 mi. N of Coralridge Mall | Change Station
CLOSE
Current Station
Personal Weather Station
Location: Coralville, IA
Elevation: 736 ft
Nearby Weather Stations

Elev 736 ft 41.70 °N, 91.60 °W | Updated 3 seconds ago

Mostly Cloudy
Mostly Cloudy
75.6 °F
Feels Like 74 °F
N
0.0
Wind Variable Wind from South
Gusts 0.0 mph

Today
High -- | Low -- °F
--% Chance of Precip.
Yesterday
High -- | Low -- °F
Precip. -- in
6:23 AM 7:54 PM
Waning Crescent, 4% visible
Pressure 29.94 in
Visibility 1.8 miles
Clouds Mostly Cloudy 500 ft
Heat Index 74 °F
Dew Point 75 °F
Humidity 98%
Rainfall 0.00 in
Snow Depth Not available.
UV 0 out of 12
Pollen 5.30 out of 12
Air Quality Not available.
Flu Activity Not available.
SPECI KIOW 231143Z AUTO 00000KT 1 3/4SM BR BKN005 23/23 A2994 RMK AO2 T02330233

More Conditions Fewer Conditions

Pressure 29.94 in
Visibility 1.8 miles
Clouds Mostly Cloudy 500 ft
Heat Index 74 °F
Dew Point 75 °F
Humidity 98%
Rainfall 0.00 in
Snow Depth Not available.
UV 0 out of 12
Pollen 5.30 out of 12
Air Quality Not available.
Flu Activity Not available.
SPECI KIOW 231143Z AUTO 00000KT 1 3/4SM BR BKN005 23/23 A2994 RMK AO2 T02330233

More Conditions Fewer Conditions

10-Day Weather Forecast

Almanac

Astronomy

Aug. 23, 2014 Rise Set
Actual Time 6:23 AM CDT 7:54 PM CDT
Civil Twilight 5:53 AM CDT 8:23 PM CDT
Nautical Twilight 5:18 AM CDT 8:58 PM CDT
Astronomical Twilight 4:41 AM CDT 9:35 PM CDT
Moon 4:39 AM CDT 6:39 PM CDT
Length of Visible Light 14h 29m
Length of Day
13h 30m
Tomorrow will be 2m 36s shorter.
Waning Crescent, 4% of the Moon is Illuminated
Today
Waning Crescent
Aug 25
New
Sep 2
First Quarter
Sep 8
Full
Sep 15
Last Quarter

Today's Extremes

State Highs State Lows

Community

WunderPhotos

Upload Photos

1,746,419 photos uploaded!

WunderBlogs® & News

By Dr. Jeff Masters
Director of Meteorology, Weather Underground
By Kari Strenfel
Meteorologist, Weather Underground
By Christopher C. Burt
Weather Historian, Weather Underground
August 23, 2014
August 23, 2014
August 23, 2014

Nearby

Snow Depth

Station Depth Elevation
No new snow has been reported.

Earthquake Activity

City Distance Mag. Time & Date
No recent earthquake activity has been reported nearby.
Minimum magnitude displayed is 2.5.

Coastal Water Temperatures

Place Temperature
No Stations Reporting

Nearby Weather Stations